This is the latest recevied weather packets stored in our database for station/object KD8UYA. If no packets are shown the sender has not sent any weather packets the latest 1 day(s).
| Time | Temp. | Humidity | Pressure | Rain* | Wind** | Luminosity | Snow |
|---|---|---|---|---|---|---|---|
| 1778078716 | 9.44° C | 86% | 1008.6 hPa | 0 mm | - | - | - |
| 1778077807 | 8.89° C | 86% | 1008.5 hPa | 0 mm | - | - | - |
| 1778073376 | 7.78° C | 95% | 1008.1 hPa | 0 mm | - | - | - |
| 1778071553 | 7.22° C | 97% | 1007.1 hPa | 0 mm | - | - | - |
| 1778062537 | 6.67° C | 98% | 1005.4 hPa | 0.51 mm | - | - | - |
| 1778059832 | 7.22° C | 98% | 1006.1 hPa | 0.76 mm | - | - | - |
| 1778058931 | 7.22° C | 98% | 1006 hPa | 0.76 mm | - | - | - |
| 1778056227 | 6.67° C | 97% | 1005.4 hPa | 1.52 mm | - | - | - |
| 1778055336 | 6.67° C | 97% | 1005.6 hPa | 1.52 mm | - | - | - |
| 1778054430 | 6.67° C | 97% | 1005.7 hPa | 1.52 mm | - | - | - |
| 1778053522 | 7.22° C | 97% | 1005.6 hPa | 2.03 mm | - | - | - |
| 1778052621 | 7.22° C | 97% | 1005.4 hPa | 1.78 mm | - | - | - |
| 1778051720 | 7.22° C | 97% | 1005.1 hPa | 1.27 mm | - | - | - |
| 1778050819 | 7.22° C | 97% | 1005.1 hPa | 1.52 mm | - | - | - |
| 1778049917 | 7.22° C | 97% | 1005.2 hPa | 1.78 mm | - | - | - |
| 1778048114 | 7.22° C | 97% | 1005.4 hPa | 2.54 mm | - | - | - |
| 1778045409 | 7.22° C | 97% | 1005.6 hPa | 1.02 mm | - | - | - |
| 1778041860 | 7.78° C | 97% | 1005.8 hPa | 1.52 mm | - | - | - |
| 1778040967 | 8.33° C | 97% | 1005.9 hPa | 1.78 mm | - | - | - |
| 1778040055 | 8.33° C | 97% | 1006 hPa | 2.03 mm | - | - | - |
| 1778039155 | 8.89° C | 98% | 1006.2 hPa | 2.03 mm | - | - | - |
| 1778038250 | 8.89° C | 98% | 1006.2 hPa | 2.54 mm | - | - | - |
| 1778037349 | 8.89° C | 97% | 1006.2 hPa | 3.05 mm | - | - | - |
| 1778031940 | 8.89° C | 97% | 1005.6 hPa | 3.81 mm | - | - | - |
| 1778031039 | 8.89° C | 97% | 1005.7 hPa | 4.32 mm | - | - | - |
* Rain latest hour (hover to see other rain measurements)
** Current wind speed in m/s (hover to see current wind gust speed)